Terminal Aerodrome Forecast
Issued by NWS

Current Version | Previous Version | Graphics & Text | Print | Product List | Glossary On
Versions: 1 2 3 4 5 6 7 8 9 10 11 12 13 14 15 16
000
FTUS41 KRNK 221304 AAA
TAFLWB
TAF AMD
KLWB 221304Z 2213/2312 VRB03KT P6SM SCT250
     FM221700 29005KT P6SM SCT060 BKN250
     FM230000 VRB03KT P6SM BKN150
      TEMPO 2308/2312 2SM BR BKN005 OVC150=

USA.gov is the U.S. government's official web portal to all federal, state and local government web resources and services.